sensor_id;sensor_type;location;lat;lon;timestamp;pressure;altitude;pressure_sealevel;temperature;humidity
72110;BME280;59983;52.010;5.420;2022-08-19T00:01:58;101409.75;;;18.19;80.60
72110;BME280;59983;52.010;5.420;2022-08-19T00:04:32;101410.13;;;18.18;80.36
72110;BME280;59983;52.010;5.420;2022-08-19T00:06:59;101404.28;;;18.26;79.68
72110;BME280;59983;52.010;5.420;2022-08-19T00:09:27;101399.97;;;18.25;79.73
72110;BME280;59983;52.010;5.420;2022-08-19T00:11:54;101408.56;;;18.17;79.82
72110;BME280;59983;52.010;5.420;2022-08-19T00:14:22;101403.06;;;18.13;79.83
72110;BME280;59983;52.010;5.420;2022-08-19T00:16:51;101403.78;;;18.06;80.15
72110;BME280;59983;52.010;5.420;2022-08-19T00:19:21;101405.41;;;18.11;80.36
72110;BME280;59983;52.010;5.420;2022-08-19T00:21:48;101410.13;;;18.18;80.34
72110;BME280;59983;52.010;5.420;2022-08-19T00:24:15;101411.75;;;18.22;80.22
72110;BME280;59983;52.010;5.420;2022-08-19T00:26:43;101414.44;;;18.11;79.83
72110;BME280;59983;52.010;5.420;2022-08-19T00:29:11;101406.91;;;18.05;80.20
72110;BME280;59983;52.010;5.420;2022-08-19T00:31:39;101405.34;;;18.04;80.32
72110;BME280;59983;52.010;5.420;2022-08-19T00:34:06;101405.34;;;18.04;80.48
72110;BME280;59983;52.010;5.420;2022-08-19T00:36:33;101402.66;;;18.11;80.49
72110;BME280;59983;52.010;5.420;2022-08-19T00:39:00;101406.97;;;18.16;80.52
72110;BME280;59983;52.010;5.420;2022-08-19T00:41:27;101397.97;;;18.19;80.44
72110;BME280;59983;52.010;5.420;2022-08-19T00:44:10;101404.16;;;18.05;80.10
72110;BME280;59983;52.010;5.420;2022-08-19T00:46:39;101405.25;;;17.93;79.98
72110;BME280;59983;52.010;5.420;2022-08-19T00:49:11;101405.94;;;17.79;80.72
72110;BME280;59983;52.010;5.420;2022-08-19T00:51:41;101413.78;;;17.77;81.21
72110;BME280;59983;52.010;5.420;2022-08-19T00:54:09;101412.63;;;17.82;80.95
72110;BME280;59983;52.010;5.420;2022-08-19T00:56:36;101412.63;;;17.82;80.68
72110;BME280;59983;52.010;5.420;2022-08-19T00:59:04;101409.88;;;17.78;80.27
72110;BME280;59983;52.010;5.420;2022-08-19T01:01:39;101405.47;;;17.70;80.87
72110;BME280;59983;52.010;5.420;2022-08-19T01:04:07;101401.94;;;17.70;81.35
72110;BME280;59983;52.010;5.420;2022-08-19T01:06:35;101401.97;;;17.73;81.58
72110;BME280;59983;52.010;5.420;2022-08-19T01:09:04;101397.94;;;17.64;80.90
72110;BME280;59983;52.010;5.420;2022-08-19T01:11:34;101400.63;;;17.56;80.90
72110;BME280;59983;52.010;5.420;2022-08-19T01:14:02;101398.25;;;17.51;81.03
72110;BME280;59983;52.010;5.420;2022-08-19T01:16:29;101403.00;;;17.58;81.44
72110;BME280;59983;52.010;5.420;2022-08-19T01:18:56;101406.53;;;17.59;80.69
72110;BME280;59983;52.010;5.420;2022-08-19T01:21:42;101408.03;;;17.52;80.69
72110;BME280;59983;52.010;5.420;2022-08-19T01:24:10;101411.88;;;17.41;80.90
72110;BME280;59983;52.010;5.420;2022-08-19T01:26:41;101409.84;;;17.34;80.96
72110;BME280;59983;52.010;5.420;2022-08-19T01:29:09;101407.47;;;17.33;81.72
72110;BME280;59983;52.010;5.420;2022-08-19T01:31:36;101418.88;;;17.38;81.67
72110;BME280;59983;52.010;5.420;2022-08-19T01:34:06;101418.84;;;17.35;81.31
72110;BME280;59983;52.010;5.420;2022-08-19T01:36:40;101418.00;;;17.31;81.35
72110;BME280;59983;52.010;5.420;2022-08-19T01:39:11;101408.63;;;17.32;81.27
72110;BME280;59983;52.010;5.420;2022-08-19T01:41:38;101419.59;;;17.32;81.72
72110;BME280;59983;52.010;5.420;2022-08-19T01:44:06;101402.41;;;17.38;81.78
72110;BME280;59983;52.010;5.420;2022-08-19T01:46:45;101403.59;;;17.37;81.37
72110;BME280;59983;52.010;5.420;2022-08-19T01:49:14;101401.19;;;17.32;81.13
72110;BME280;59983;52.010;5.420;2022-08-19T01:51:41;101402.25;;;17.20;81.04
72110;BME280;59983;52.010;5.420;2022-08-19T01:54:09;101407.63;;;17.10;81.17
72110;BME280;59983;52.010;5.420;2022-08-19T01:56:37;101417.41;;;17.11;81.27
72110;BME280;59983;52.010;5.420;2022-08-19T01:59:09;101416.72;;;17.17;81.55
72110;BME280;59983;52.010;5.420;2022-08-19T02:01:36;101411.59;;;17.16;81.85
72110;BME280;59983;52.010;5.420;2022-08-19T02:04:03;101416.31;;;17.15;81.83
72110;BME280;59983;52.010;5.420;2022-08-19T02:06:31;101408.50;;;17.21;81.13
72110;BME280;59983;52.010;5.420;2022-08-19T02:08:59;101406.13;;;17.16;80.81
72110;BME280;59983;52.010;5.420;2022-08-19T02:11:31;101412.28;;;17.06;80.77
72110;BME280;59983;52.010;5.420;2022-08-19T02:14:05;101413.41;;;17.05;80.98
72110;BME280;59983;52.010;5.420;2022-08-19T02:16:32;101415.03;;;17.06;81.01
72110;BME280;59983;52.010;5.420;2022-08-19T02:18:59;101412.59;;;17.01;81.03
72110;BME280;59983;52.010;5.420;2022-08-19T02:21:29;101414.06;;;16.91;80.58
72110;BME280;59983;52.010;5.420;2022-08-19T02:23:56;101417.13;;;16.86;80.70
72110;BME280;59983;52.010;5.420;2022-08-19T02:26:23;101418.28;;;16.85;81.58
72110;BME280;59983;52.010;5.420;2022-08-19T02:28:50;101422.25;;;16.87;81.94
72110;BME280;59983;52.010;5.420;2022-08-19T02:31:18;101423.88;;;16.92;81.96
72110;BME280;59983;52.010;5.420;2022-08-19T02:33:46;101427.78;;;16.91;81.16
72110;BME280;59983;52.010;5.420;2022-08-19T02:36:14;101429.22;;;16.81;81.26
72110;BME280;59983;52.010;5.420;2022-08-19T02:38:46;101430.03;;;16.85;81.72
72110;BME280;59983;52.010;5.420;2022-08-19T02:41:23;101423.38;;;16.83;82.14
72110;BME280;59983;52.010;5.420;2022-08-19T02:43:56;101428.88;;;16.86;81.89
72110;BME280;59983;52.010;5.420;2022-08-19T02:46:46;101423.44;;;16.90;81.70
72110;BME280;59983;52.010;5.420;2022-08-19T02:49:13;101419.66;;;17.02;81.38
72110;BME280;59983;52.010;5.420;2022-08-19T02:51:44;101417.69;;;16.98;81.32
72110;BME280;59983;52.010;5.420;2022-08-19T02:54:12;101435.13;;;16.87;81.30
72110;BME280;59983;52.010;5.420;2022-08-19T02:56:41;101434.41;;;16.90;81.78
72110;BME280;59983;52.010;5.420;2022-08-19T02:59:08;101435.19;;;16.90;81.98
72110;BME280;59983;52.010;5.420;2022-08-19T03:01:37;101433.66;;;16.93;81.76
72110;BME280;59983;52.010;5.420;2022-08-19T03:04:08;101432.00;;;16.85;80.63
72110;BME280;59983;52.010;5.420;2022-08-19T03:06:41;101426.75;;;16.73;80.73
72110;BME280;59983;52.010;5.420;2022-08-19T03:09:09;101431.31;;;16.65;81.38
72110;BME280;59983;52.010;5.420;2022-08-19T03:11:37;101431.75;;;16.67;82.11
72110;BME280;59983;52.010;5.420;2022-08-19T03:14:05;101428.72;;;16.72;82.11
72110;BME280;59983;52.010;5.420;2022-08-19T03:16:40;101425.31;;;16.82;82.17
72110;BME280;59983;52.010;5.420;2022-08-19T03:19:07;101416.72;;;16.84;82.58
72110;BME280;59983;52.010;5.420;2022-08-19T03:21:34;101408.22;;;16.96;82.50
72110;BME280;59983;52.010;5.420;2022-08-19T03:24:04;101413.47;;;17.08;82.35
72110;BME280;59983;52.010;5.420;2022-08-19T03:26:32;101413.19;;;17.17;82.43
72110;BME280;59983;52.010;5.420;2022-08-19T03:29:02;101409.72;;;17.23;82.50
72110;BME280;59983;52.010;5.420;2022-08-19T03:31:31;101426.50;;;17.18;81.27
72110;BME280;59983;52.010;5.420;2022-08-19T03:34:23;101414.97;;;17.02;80.63
72110;BME280;59983;52.010;5.420;2022-08-19T03:36:55;101410.53;;;16.90;80.91
72110;BME280;59983;52.010;5.420;2022-08-19T03:39:23;101410.66;;;17.01;81.94
72110;BME280;59983;52.010;5.420;2022-08-19T03:41:53;101421.72;;;17.12;81.65
72110;BME280;59983;52.010;5.420;2022-08-19T03:44:42;101424.16;;;17.20;82.06
72110;BME280;59983;52.010;5.420;2022-08-19T03:47:10;101426.09;;;17.16;81.79
72110;BME280;59983;52.010;5.420;2022-08-19T03:49:42;101411.94;;;17.11;81.21
72110;BME280;59983;52.010;5.420;2022-08-19T03:52:08;101415.34;;;17.01;81.49
72110;BME280;59983;52.010;5.420;2022-08-19T03:54:36;101418.09;;;17.01;81.67
72110;BME280;59983;52.010;5.420;2022-08-19T03:57:04;101423.94;;;16.99;81.75
72110;BME280;59983;52.010;5.420;2022-08-19T03:59:34;101425.84;;;16.95;80.52
72110;BME280;59983;52.010;5.420;2022-08-19T04:02:05;101429.25;;;16.85;80.28
72110;BME280;59983;52.010;5.420;2022-08-19T04:04:35;101421.28;;;16.73;80.94
72110;BME280;59983;52.010;5.420;2022-08-19T04:07:03;101414.22;;;16.72;81.16
72110;BME280;59983;52.010;5.420;2022-08-19T04:09:29;101405.22;;;16.71;81.70
72110;BME280;59983;52.010;5.420;2022-08-19T04:11:57;101402.38;;;16.64;82.05
72110;BME280;59983;52.010;5.420;2022-08-19T04:14:26;101401.97;;;16.65;81.97
72110;BME280;59983;52.010;5.420;2022-08-19T04:16:55;101396.88;;;16.64;82.36
72110;BME280;59983;52.010;5.420;2022-08-19T04:19:22;101407.88;;;16.67;82.23
72110;BME280;59983;52.010;5.420;2022-08-19T04:21:52;101404.72;;;16.65;81.96
72110;BME280;59983;52.010;5.420;2022-08-19T04:24:20;101401.56;;;16.63;81.99
72110;BME280;59983;52.010;5.420;2022-08-19T04:26:47;101400.28;;;16.54;81.95
72110;BME280;59983;52.010;5.420;2022-08-19T04:29:23;101398.63;;;16.49;82.02
72110;BME280;59983;52.010;5.420;2022-08-19T04:31:53;101394.75;;;16.50;81.95
72110;BME280;59983;52.010;5.420;2022-08-19T04:34:21;101404.59;;;16.55;82.11
72110;BME280;59983;52.010;5.420;2022-08-19T04:36:49;101401.00;;;16.51;80.71
72110;BME280;59983;52.010;5.420;2022-08-19T04:39:23;101415.09;;;16.23;80.73
72110;BME280;59983;52.010;5.420;2022-08-19T04:42:11;101407.56;;;16.16;81.46
72110;BME280;59983;52.010;5.420;2022-08-19T04:44:57;101397.09;;;16.22;81.66
72110;BME280;59983;52.010;5.420;2022-08-19T04:47:25;101396.69;;;16.20;82.01
72110;BME280;59983;52.010;5.420;2022-08-19T04:50:12;101400.63;;;16.22;82.47
72110;BME280;59983;52.010;5.420;2022-08-19T04:52:39;101393.81;;;16.39;82.90
72110;BME280;59983;52.010;5.420;2022-08-19T04:55:10;101398.25;;;16.51;83.76
72110;BME280;59983;52.010;5.420;2022-08-19T04:57:37;101394.53;;;16.62;84.09
72110;BME280;59983;52.010;5.420;2022-08-19T05:00:08;101399.25;;;16.65;84.42
72110;BME280;59983;52.010;5.420;2022-08-19T05:02:34;101408.25;;;16.66;84.58
72110;BME280;59983;52.010;5.420;2022-08-19T05:05:02;101407.88;;;16.67;84.57
72110;BME280;59983;52.010;5.420;2022-08-19T05:07:29;101407.88;;;16.67;84.87
72110;BME280;59983;52.010;5.420;2022-08-19T05:09:55;101410.63;;;16.67;84.20
72110;BME280;59983;52.010;5.420;2022-08-19T05:12:25;101411.41;;;16.68;83.49
72110;BME280;59983;52.010;5.420;2022-08-19T05:14:55;101410.19;;;16.65;82.79
72110;BME280;59983;52.010;5.420;2022-08-19T05:17:23;101425.84;;;16.65;81.28
72110;BME280;59983;52.010;5.420;2022-08-19T05:19:58;101425.75;;;16.58;80.68
72110;BME280;59983;52.010;5.420;2022-08-19T05:22:45;101426.03;;;16.49;81.60
72110;BME280;59983;52.010;5.420;2022-08-19T05:25:15;101427.69;;;16.57;82.14
72110;BME280;59983;52.010;5.420;2022-08-19T05:27:44;101427.00;;;16.64;82.51
72110;BME280;59983;52.010;5.420;2022-08-19T05:30:11;101438.75;;;16.64;82.70
72110;BME280;59983;52.010;5.420;2022-08-19T05:32:39;101428.66;;;16.68;83.16
72110;BME280;59983;52.010;5.420;2022-08-19T05:35:06;101439.69;;;16.72;83.01
72110;BME280;59983;52.010;5.420;2022-08-19T05:37:32;101444.47;;;16.79;82.80
72110;BME280;59983;52.010;5.420;2022-08-19T05:39:59;101462.75;;;16.71;83.18
72110;BME280;59983;52.010;5.420;2022-08-19T05:42:26;101442.44;;;16.76;83.70
72110;BME280;59983;52.010;5.420;2022-08-19T05:44:53;101446.06;;;16.83;83.84
72110;BME280;59983;52.010;5.420;2022-08-19T05:47:20;101439.53;;;16.91;84.07
72110;BME280;59983;52.010;5.420;2022-08-19T05:49:47;101438.47;;;17.03;83.84
72110;BME280;59983;52.010;5.420;2022-08-19T05:52:16;101433.78;;;17.04;83.86
72110;BME280;59983;52.010;5.420;2022-08-19T05:54:45;101435.41;;;17.08;84.16
72110;BME280;59983;52.010;5.420;2022-08-19T05:57:17;101433.19;;;17.21;84.17
72110;BME280;59983;52.010;5.420;2022-08-19T05:59:45;101427.78;;;17.28;83.82
72110;BME280;59983;52.010;5.420;2022-08-19T06:02:14;101429.84;;;17.38;84.01
72110;BME280;59983;52.010;5.420;2022-08-19T06:04:41;101427.09;;;17.38;84.52
72110;BME280;59983;52.010;5.420;2022-08-19T06:07:10;101435.72;;;17.40;84.65
72110;BME280;59983;52.010;5.420;2022-08-19T06:09:39;101436.97;;;17.46;84.87
72110;BME280;59983;52.010;5.420;2022-08-19T06:12:06;101429.28;;;17.59;85.00
72110;BME280;59983;52.010;5.420;2022-08-19T06:14:34;101438.31;;;17.67;84.79
72110;BME280;59983;52.010;5.420;2022-08-19T06:17:07;101439.69;;;17.83;84.63
72110;BME280;59983;52.010;5.420;2022-08-19T06:19:34;101435.44;;;17.93;84.64
72110;BME280;59983;52.010;5.420;2022-08-19T06:22:06;101435.88;;;17.99;84.71
72110;BME280;59983;52.010;5.420;2022-08-19T06:24:33;101441.84;;;18.08;85.25
72110;BME280;59983;52.010;5.420;2022-08-19T06:27:00;101432.88;;;18.15;85.36
72110;BME280;59983;52.010;5.420;2022-08-19T06:29:28;101434.13;;;18.28;85.94
72110;BME280;59983;52.010;5.420;2022-08-19T06:31:57;101436.13;;;18.31;86.33
72110;BME280;59983;52.010;5.420;2022-08-19T06:34:26;101436.56;;;18.44;85.89
72110;BME280;59983;52.010;5.420;2022-08-19T06:36:55;101432.69;;;18.48;87.21
72110;BME280;59983;52.010;5.420;2022-08-19T06:39:28;101438.19;;;18.52;88.04
72110;BME280;59983;52.010;5.420;2022-08-19T06:41:59;101444.84;;;18.47;88.15
72110;BME280;59983;52.010;5.420;2022-08-19T06:44:27;101444.41;;;18.42;88.20
72110;BME280;59983;52.010;5.420;2022-08-19T06:46:57;101440.44;;;18.35;88.59
72110;BME280;59983;52.010;5.420;2022-08-19T06:49:23;101444.03;;;18.39;88.51
72110;BME280;59983;52.010;5.420;2022-08-19T06:51:53;101449.50;;;18.39;88.71
72110;BME280;59983;52.010;5.420;2022-08-19T06:54:19;101450.66;;;18.35;89.03
72110;BME280;59983;52.010;5.420;2022-08-19T06:56:46;101441.66;;;18.38;89.53
72110;BME280;59983;52.010;5.420;2022-08-19T06:59:16;101455.78;;;18.40;89.29
72110;BME280;59983;52.010;5.420;2022-08-19T07:01:46;101453.00;;;18.36;89.42
72110;BME280;59983;52.010;5.420;2022-08-19T07:04:19;101446.75;;;18.39;89.87
72110;BME280;59983;52.010;5.420;2022-08-19T07:06:45;101458.56;;;18.44;89.72
72110;BME280;59983;52.010;5.420;2022-08-19T07:09:20;101457.03;;;18.53;89.79
72110;BME280;59983;52.010;5.420;2022-08-19T07:11:49;101451.97;;;18.59;89.77
72110;BME280;59983;52.010;5.420;2022-08-19T07:14:18;101459.91;;;18.67;89.44
72110;BME280;59983;52.010;5.420;2022-08-19T07:16:48;101452.44;;;18.72;88.85
72110;BME280;59983;52.010;5.420;2022-08-19T07:19:16;101447.81;;;18.83;89.19
72110;BME280;59983;52.010;5.420;2022-08-19T07:21:48;101446.63;;;18.87;88.13
72110;BME280;59983;52.010;5.420;2022-08-19T07:24:16;101456.06;;;18.86;88.21
72110;BME280;59983;52.010;5.420;2022-08-19T07:26:43;101453.31;;;18.86;88.34
72110;BME280;59983;52.010;5.420;2022-08-19T07:29:11;101458.44;;;18.95;88.30
72110;BME280;59983;52.010;5.420;2022-08-19T07:31:39;101452.94;;;18.99;87.79
72110;BME280;59983;52.010;5.420;2022-08-19T07:34:12;101450.63;;;19.01;87.22
72110;BME280;59983;52.010;5.420;2022-08-19T07:36:41;101449.84;;;19.07;87.21
72110;BME280;59983;52.010;5.420;2022-08-19T07:39:12;101443.59;;;19.21;86.19
72110;BME280;59983;52.010;5.420;2022-08-19T07:41:40;101457.75;;;19.23;85.50
72110;BME280;59983;52.010;5.420;2022-08-19T07:44:08;101462.84;;;19.17;85.43
72110;BME280;59983;52.010;5.420;2022-08-19T07:46:37;101462.03;;;19.13;85.85
72110;BME280;59983;52.010;5.420;2022-08-19T07:49:05;101460.91;;;19.18;86.76
72110;BME280;59983;52.010;5.420;2022-08-19T07:51:33;101458.56;;;19.27;86.12
72110;BME280;59983;52.010;5.420;2022-08-19T07:54:03;101462.09;;;19.28;85.63
72110;BME280;59983;52.010;5.420;2022-08-19T07:56:29;101464.06;;;19.34;85.93
72110;BME280;59983;52.010;5.420;2022-08-19T07:58:56;101464.13;;;19.56;84.65
72110;BME280;59983;52.010;5.420;2022-08-19T08:01:25;101465.72;;;19.60;85.71
72110;BME280;59983;52.010;5.420;2022-08-19T08:03:53;101470.06;;;19.65;84.71
72110;BME280;59983;52.010;5.420;2022-08-19T08:06:39;101472.41;;;19.59;84.99
72110;BME280;59983;52.010;5.420;2022-08-19T08:09:29;101478.72;;;19.63;84.61
72110;BME280;59983;52.010;5.420;2022-08-19T08:14:34;101479.88;;;19.66;84.60
72110;BME280;59983;52.010;5.420;2022-08-19T08:17:03;101484.59;;;19.76;84.33
72110;BME280;59983;52.010;5.420;2022-08-19T08:19:37;101487.00;;;20.06;84.06
72110;BME280;59983;52.010;5.420;2022-08-19T08:22:04;101482.25;;;20.14;82.86
72110;BME280;59983;52.010;5.420;2022-08-19T08:24:32;101490.13;;;20.15;82.85
72110;BME280;59983;52.010;5.420;2022-08-19T08:27:00;101501.16;;;20.19;83.10
72110;BME280;59983;52.010;5.420;2022-08-19T08:29:28;101505.47;;;20.16;81.85
72110;BME280;59983;52.010;5.420;2022-08-19T08:32:01;101507.44;;;20.08;82.52
72110;BME280;59983;52.010;5.420;2022-08-19T08:34:28;101512.56;;;20.06;82.14
72110;BME280;59983;52.010;5.420;2022-08-19T08:36:54;101515.69;;;20.05;81.42
72110;BME280;59983;52.010;5.420;2022-08-19T08:39:21;101512.53;;;20.14;80.66
72110;BME280;59983;52.010;5.420;2022-08-19T08:47:18;101520.81;;;20.35;81.17
72110;BME280;59983;52.010;5.420;2022-08-19T08:49:53;101523.94;;;20.41;81.44
72110;BME280;59983;52.010;5.420;2022-08-19T08:52:31;101522.78;;;20.49;81.13
72110;BME280;59983;52.010;5.420;2022-08-19T08:55:08;101513.75;;;20.52;80.44
72110;BME280;59983;52.010;5.420;2022-08-19T09:00:40;101512.53;;;20.63;79.83
72110;BME280;59983;52.010;5.420;2022-08-19T09:03:20;101520.81;;;20.56;80.84
72110;BME280;59983;52.010;5.420;2022-08-19T09:06:01;101513.28;;;20.78;79.69
72110;BME280;59983;52.010;5.420;2022-08-19T09:08:38;101519.53;;;20.93;77.66
72110;BME280;59983;52.010;5.420;2022-08-19T09:11:15;101522.22;;;21.07;80.03
72110;BME280;59983;52.010;5.420;2022-08-19T09:14:10;101511.88;;;21.36;77.96
72110;BME280;59983;52.010;5.420;2022-08-19T09:17:00;101506.97;;;21.69;74.34
72110;BME280;59983;52.010;5.420;2022-08-19T09:19:29;101508.09;;;21.75;74.29
72110;BME280;59983;52.010;5.420;2022-08-19T09:21:58;101513.91;;;21.91;74.42
72110;BME280;59983;52.010;5.420;2022-08-19T09:24:26;101512.69;;;21.96;72.99
72110;BME280;59983;52.010;5.420;2022-08-19T09:26:56;101510.31;;;21.94;73.32
72110;BME280;59983;52.010;5.420;2022-08-19T09:29:23;101505.34;;;21.75;73.93
72110;BME280;59983;52.010;5.420;2022-08-19T09:31:49;101514.03;;;21.73;74.88
72110;BME280;59983;52.010;5.420;2022-08-19T09:34:16;101503.81;;;21.67;76.13
72110;BME280;59983;52.010;5.420;2022-08-19T09:36:47;101514.25;;;21.97;73.85
72110;BME280;59983;52.010;5.420;2022-08-19T09:39:18;101513.41;;;22.07;71.89
72110;BME280;59983;52.010;5.420;2022-08-19T09:41:46;101520.50;;;22.08;70.91
72110;BME280;59983;52.010;5.420;2022-08-19T09:44:14;101514.84;;;22.22;70.70
72110;BME280;59983;52.010;5.420;2022-08-19T09:46:41;101516.00;;;22.25;71.21
72110;BME280;59983;52.010;5.420;2022-08-19T09:49:08;101516.94;;;22.11;71.28
72110;BME280;59983;52.010;5.420;2022-08-19T09:51:35;101523.72;;;21.96;71.43
72110;BME280;59983;52.010;5.420;2022-08-19T09:54:03;101525.38;;;21.86;72.18
72110;BME280;59983;52.010;5.420;2022-08-19T09:56:31;101518.28;;;21.82;73.02
72110;BME280;59983;52.010;5.420;2022-08-19T09:59:00;101524.88;;;21.98;73.52
72110;BME280;59983;52.010;5.420;2022-08-19T10:01:29;101517.00;;;22.00;71.20
72110;BME280;59983;52.010;5.420;2022-08-19T10:03:57;101525.38;;;21.86;73.77
72110;BME280;59983;52.010;5.420;2022-08-19T10:06:27;101531.81;;;21.69;73.37
72110;BME280;59983;52.010;5.420;2022-08-19T10:09:12;101526.78;;;21.53;73.76
72110;BME280;59983;52.010;5.420;2022-08-19T10:11:43;101532.31;;;21.49;74.60
72110;BME280;59983;52.010;5.420;2022-08-19T10:14:20;101529.53;;;21.53;75.52
72110;BME280;59983;52.010;5.420;2022-08-19T10:16:48;101528.75;;;21.53;74.96
72110;BME280;59983;52.010;5.420;2022-08-19T10:19:15;101525.16;;;21.59;76.12
72110;BME280;59983;52.010;5.420;2022-08-19T10:21:52;101528.22;;;21.75;74.36
72110;BME280;59983;52.010;5.420;2022-08-19T10:24:21;101524.84;;;22.05;75.14
72110;BME280;59983;52.010;5.420;2022-08-19T10:26:50;101525.19;;;22.15;73.82
72110;BME280;59983;52.010;5.420;2022-08-19T10:29:24;101529.97;;;22.11;74.12
72110;BME280;59983;52.010;5.420;2022-08-19T10:32:00;101518.53;;;22.09;73.47
72110;BME280;59983;52.010;5.420;2022-08-19T10:34:29;101519.56;;;22.25;73.79
72110;BME280;59983;52.010;5.420;2022-08-19T10:36:57;101519.38;;;22.47;73.64
72110;BME280;59983;52.010;5.420;2022-08-19T10:39:27;101517.31;;;22.54;72.48
72110;BME280;59983;52.010;5.420;2022-08-19T10:42:09;101512.28;;;22.42;72.90
72110;BME280;59983;52.010;5.420;2022-08-19T10:44:40;101518.22;;;22.44;72.23
72110;BME280;59983;52.010;5.420;2022-08-19T10:47:07;101508.31;;;22.47;72.55
72110;BME280;59983;52.010;5.420;2022-08-19T10:49:51;101503.88;;;22.56;71.52
72110;BME280;59983;52.010;5.420;2022-08-19T10:52:42;101510.09;;;22.64;72.55
72110;BME280;59983;52.010;5.420;2022-08-19T10:55:20;101502.84;;;22.77;71.59
72110;BME280;59983;52.010;5.420;2022-08-19T10:58:13;101513.47;;;22.82;71.17
72110;BME280;59983;52.010;5.420;2022-08-19T11:00:41;101511.25;;;22.67;71.61
72110;BME280;59983;52.010;5.420;2022-08-19T11:03:09;101499.78;;;22.68;71.73
72110;BME280;59983;52.010;5.420;2022-08-19T11:05:36;101504.09;;;22.73;72.73
72110;BME280;59983;52.010;5.420;2022-08-19T11:08:06;101510.25;;;22.87;71.06
72110;BME280;59983;52.010;5.420;2022-08-19T11:10:51;101506.59;;;22.98;70.73
72110;BME280;59983;52.010;5.420;2022-08-19T11:13:20;101504.47;;;23.09;71.97
72110;BME280;59983;52.010;5.420;2022-08-19T11:15:46;101499.06;;;23.29;70.57
72110;BME280;59983;52.010;5.420;2022-08-19T11:18:13;101504.59;;;23.29;70.48
72110;BME280;59983;52.010;5.420;2022-08-19T11:20:40;101502.25;;;23.27;70.98
72110;BME280;59983;52.010;5.420;2022-08-19T11:23:06;101503.47;;;23.26;70.29
72110;BME280;59983;52.010;5.420;2022-08-19T11:25:33;101494.94;;;23.40;68.98
72110;BME280;59983;52.010;5.420;2022-08-19T11:28:00;101497.69;;;23.44;69.73
72110;BME280;59983;52.010;5.420;2022-08-19T11:30:27;101502.06;;;23.41;69.52
72110;BME280;59983;52.010;5.420;2022-08-19T11:32:54;101496.38;;;23.52;70.47
72110;BME280;59983;52.010;5.420;2022-08-19T11:35:20;101498.09;;;23.42;70.03
72110;BME280;59983;52.010;5.420;2022-08-19T11:37:47;101489.47;;;23.37;69.66
72110;BME280;59983;52.010;5.420;2022-08-19T11:40:14;101490.94;;;23.45;70.67
72110;BME280;59983;52.010;5.420;2022-08-19T11:42:40;101486.25;;;23.42;69.85
72110;BME280;59983;52.010;5.420;2022-08-19T11:45:24;101480.38;;;23.36;69.13
72110;BME280;59983;52.010;5.420;2022-08-19T11:47:51;101483.03;;;23.43;70.00
72110;BME280;59983;52.010;5.420;2022-08-19T11:50:18;101478.06;;;23.58;70.66
72110;BME280;59983;52.010;5.420;2022-08-19T11:52:45;101481.06;;;23.71;69.42
72110;BME280;59983;52.010;5.420;2022-08-19T11:55:13;101472.03;;;23.67;68.96
72110;BME280;59983;52.010;5.420;2022-08-19T11:57:40;101467.13;;;23.51;69.87
72110;BME280;59983;52.010;5.420;2022-08-19T12:00:08;101474.75;;;23.70;69.53
72110;BME280;59983;52.010;5.420;2022-08-19T12:02:36;101477.53;;;23.94;67.90
72110;BME280;59983;52.010;5.420;2022-08-19T12:05:02;101479.75;;;24.02;70.21
72110;BME280;59983;52.010;5.420;2022-08-19T12:07:33;101478.25;;;23.98;66.35
72110;BME280;59983;52.010;5.420;2022-08-19T12:10:00;101479.16;;;23.91;68.68
72110;BME280;59983;52.010;5.420;2022-08-19T12:12:28;101482.94;;;24.01;68.77
72110;BME280;59983;52.010;5.420;2022-08-19T12:14:55;101486.50;;;24.25;68.35
72110;BME280;59983;52.010;5.420;2022-08-19T12:17:25;101481.91;;;24.38;67.34
72110;BME280;59983;52.010;5.420;2022-08-19T12:19:53;101482.19;;;24.47;67.70
72110;BME280;59983;52.010;5.420;2022-08-19T12:22:20;101475.84;;;24.67;66.72
72110;BME280;59983;52.010;5.420;2022-08-19T12:24:48;101478.03;;;24.55;66.28
72110;BME280;59983;52.010;5.420;2022-08-19T12:27:17;101467.22;;;24.41;66.34
72110;BME280;59983;52.010;5.420;2022-08-19T12:30:02;101473.41;;;24.25;65.81
72110;BME280;59983;52.010;5.420;2022-08-19T12:32:29;101473.19;;;24.16;67.25
72110;BME280;59983;52.010;5.420;2022-08-19T12:34:55;101471.97;;;24.17;68.25
72110;BME280;59983;52.010;5.420;2022-08-19T12:37:22;101472.97;;;24.07;67.65
72110;BME280;59983;52.010;5.420;2022-08-19T12:39:49;101470.63;;;24.06;67.94
72110;BME280;59983;52.010;5.420;2022-08-19T12:42:15;101468.19;;;24.08;67.06
72110;BME280;59983;52.010;5.420;2022-08-19T12:44:44;101469.75;;;24.09;67.71
72110;BME280;59983;52.010;5.420;2022-08-19T12:47:12;101462.72;;;24.04;67.85
72110;BME280;59983;52.010;5.420;2022-08-19T12:49:41;101475.13;;;23.96;68.62
72110;BME280;59983;52.010;5.420;2022-08-19T12:52:24;101477.41;;;24.01;67.64
72110;BME280;59983;52.010;5.420;2022-08-19T12:54:52;101466.72;;;24.03;67.83
72110;BME280;59983;52.010;5.420;2022-08-19T12:57:20;101463.78;;;24.10;67.49
72110;BME280;59983;52.010;5.420;2022-08-19T12:59:52;101464.63;;;24.07;67.58
72110;BME280;59983;52.010;5.420;2022-08-19T13:02:19;101461.41;;;24.12;69.42
72110;BME280;59983;52.010;5.420;2022-08-19T13:04:46;101460.44;;;23.99;68.74
72110;BME280;59983;52.010;5.420;2022-08-19T13:07:13;101462.72;;;23.81;69.34
72110;BME280;59983;52.010;5.420;2022-08-19T13:09:39;101468.06;;;23.68;69.27
72110;BME280;59983;52.010;5.420;2022-08-19T13:12:08;101463.06;;;23.59;70.24
72110;BME280;59983;52.010;5.420;2022-08-19T13:14:39;101471.03;;;23.54;69.91
72110;BME280;59983;52.010;5.420;2022-08-19T13:17:07;101461.16;;;23.53;71.18